sensor_id;sensor_type;location;lat;lon;timestamp;P1;durP1;ratioP1;P2;durP2;ratioP2
26780;SDS011;14366;49.184;8.054;2023-07-31T00:07:57;6.53;;;2.10;;
26780;SDS011;14366;49.184;8.054;2023-07-31T00:18:23;3.40;;;1.70;;
26780;SDS011;14366;49.184;8.054;2023-07-31T00:28:59;4.30;;;2.20;;
26780;SDS011;14366;49.184;8.054;2023-07-31T00:34:36;5.57;;;2.13;;
26780;SDS011;14366;49.184;8.054;2023-07-31T00:40:10;8.03;;;2.20;;
26780;SDS011;14366;49.184;8.054;2023-07-31T00:45:31;3.70;;;2.07;;
26780;SDS011;14366;49.184;8.054;2023-07-31T00:51:08;3.40;;;1.97;;
26780;SDS011;14366;49.184;8.054;2023-07-31T00:56:44;6.65;;;2.20;;
26780;SDS011;14366;49.184;8.054;2023-07-31T01:02:18;6.33;;;2.50;;
26780;SDS011;14366;49.184;8.054;2023-07-31T01:07:56;4.43;;;2.30;;
26780;SDS011;14366;49.184;8.054;2023-07-31T01:13:29;4.70;;;1.90;;
26780;SDS011;14366;49.184;8.054;2023-07-31T01:19:05;5.33;;;2.47;;
26780;SDS011;14366;49.184;8.054;2023-07-31T01:24:40;5.00;;;2.30;;
26780;SDS011;14366;49.184;8.054;2023-07-31T01:35:19;6.00;;;2.10;;
26780;SDS011;14366;49.184;8.054;2023-07-31T01:40:54;5.90;;;2.50;;
26780;SDS011;14366;49.184;8.054;2023-07-31T01:46:29;5.30;;;2.27;;
26780;SDS011;14366;49.184;8.054;2023-07-31T01:51:50;4.50;;;2.60;;
26780;SDS011;14366;49.184;8.054;2023-07-31T01:57:25;8.25;;;2.60;;
26780;SDS011;14366;49.184;8.054;2023-07-31T02:03:01;4.70;;;2.17;;
26780;SDS011;14366;49.184;8.054;2023-07-31T02:08:23;4.35;;;2.45;;
26780;SDS011;14366;49.184;8.054;2023-07-31T02:13:56;4.83;;;2.40;;
26780;SDS011;14366;49.184;8.054;2023-07-31T02:19:31;7.10;;;2.40;;
26780;SDS011;14366;49.184;8.054;2023-07-31T02:24:49;5.23;;;2.50;;
26780;SDS011;14366;49.184;8.054;2023-07-31T02:30:24;4.53;;;2.50;;
26780;SDS011;14366;49.184;8.054;2023-07-31T02:35:59;5.50;;;2.40;;
26780;SDS011;14366;49.184;8.054;2023-07-31T02:41:20;7.10;;;2.70;;
26780;SDS011;14366;49.184;8.054;2023-07-31T02:46:55;5.73;;;2.33;;
26780;SDS011;14366;49.184;8.054;2023-07-31T02:52:30;3.40;;;2.05;;
26780;SDS011;14366;49.184;8.054;2023-07-31T02:58:03;5.60;;;2.10;;
26780;SDS011;14366;49.184;8.054;2023-07-31T03:03:38;5.60;;;2.40;;
26780;SDS011;14366;49.184;8.054;2023-07-31T03:09:13;5.05;;;2.40;;
26780;SDS011;14366;49.184;8.054;2023-07-31T03:14:34;4.63;;;2.57;;
26780;SDS011;14366;49.184;8.054;2023-07-31T03:25:13;5.70;;;2.10;;
26780;SDS011;14366;49.184;8.054;2023-07-31T03:30:31;3.50;;;2.20;;
26780;SDS011;14366;49.184;8.054;2023-07-31T03:36:04;5.43;;;2.17;;
26780;SDS011;14366;49.184;8.054;2023-07-31T03:41:39;5.43;;;2.40;;
26780;SDS011;14366;49.184;8.054;2023-07-31T03:47:15;6.33;;;2.20;;
26780;SDS011;14366;49.184;8.054;2023-07-31T03:52:50;7.83;;;2.40;;
26780;SDS011;14366;49.184;8.054;2023-07-31T03:58:25;4.47;;;2.50;;
26780;SDS011;14366;49.184;8.054;2023-07-31T04:03:46;6.77;;;2.40;;
26780;SDS011;14366;49.184;8.054;2023-07-31T04:09:21;4.70;;;2.13;;
26780;SDS011;14366;49.184;8.054;2023-07-31T04:14:41;3.80;;;2.65;;
26780;SDS011;14366;49.184;8.054;2023-07-31T04:20:04;5.17;;;2.60;;
26780;SDS011;14366;49.184;8.054;2023-07-31T04:30:43;4.18;;;2.38;;
26780;SDS011;14366;49.184;8.054;2023-07-31T04:36:01;6.30;;;2.50;;
26780;SDS011;14366;49.184;8.054;2023-07-31T04:41:33;6.10;;;2.70;;
26780;SDS011;14366;49.184;8.054;2023-07-31T04:47:05;5.73;;;2.50;;
26780;SDS011;14366;49.184;8.054;2023-07-31T04:52:41;4.83;;;2.90;;
26780;SDS011;14366;49.184;8.054;2023-07-31T04:58:13;5.33;;;2.67;;
26780;SDS011;14366;49.184;8.054;2023-07-31T05:03:48;6.20;;;2.67;;
26780;SDS011;14366;49.184;8.054;2023-07-31T05:09:24;5.73;;;2.40;;
26780;SDS011;14366;49.184;8.054;2023-07-31T05:14:59;6.17;;;2.77;;
26780;SDS011;14366;49.184;8.054;2023-07-31T05:20:16;5.27;;;2.50;;
26780;SDS011;14366;49.184;8.054;2023-07-31T05:25:38;5.47;;;2.87;;
26780;SDS011;14366;49.184;8.054;2023-07-31T05:31:13;6.10;;;2.60;;
26780;SDS011;14366;49.184;8.054;2023-07-31T05:36:34;5.00;;;2.40;;
26780;SDS011;14366;49.184;8.054;2023-07-31T05:42:11;9.77;;;2.97;;
26780;SDS011;14366;49.184;8.054;2023-07-31T05:47:45;6.33;;;3.10;;
26780;SDS011;14366;49.184;8.054;2023-07-31T05:58:09;6.90;;;2.50;;
26780;SDS011;14366;49.184;8.054;2023-07-31T06:03:40;7.77;;;2.37;;
26780;SDS011;14366;49.184;8.054;2023-07-31T06:09:00;4.55;;;2.70;;
26780;SDS011;14366;49.184;8.054;2023-07-31T06:14:22;6.30;;;2.70;;
26780;SDS011;14366;49.184;8.054;2023-07-31T06:19:56;5.37;;;2.60;;
26780;SDS011;14366;49.184;8.054;2023-07-31T06:25:28;6.67;;;2.60;;
26780;SDS011;14366;49.184;8.054;2023-07-31T06:31:05;5.43;;;2.70;;
26780;SDS011;14366;49.184;8.054;2023-07-31T06:36:40;7.57;;;2.90;;
26780;SDS011;14366;49.184;8.054;2023-07-31T06:42:00;7.53;;;2.90;;
26780;SDS011;14366;49.184;8.054;2023-07-31T06:47:37;6.23;;;2.53;;
26780;SDS011;14366;49.184;8.054;2023-07-31T06:53:08;6.33;;;2.33;;
26780;SDS011;14366;49.184;8.054;2023-07-31T06:58:26;4.65;;;2.40;;
26780;SDS011;14366;49.184;8.054;2023-07-31T07:03:48;4.30;;;2.80;;
26780;SDS011;14366;49.184;8.054;2023-07-31T07:09:17;4.06;;;2.20;;
26780;SDS011;14366;49.184;8.054;2023-07-31T07:14:35;6.10;;;2.60;;
26780;SDS011;14366;49.184;8.054;2023-07-31T07:20:12;4.87;;;2.50;;
26780;SDS011;14366;49.184;8.054;2023-07-31T07:25:47;5.60;;;2.70;;
26780;SDS011;14366;49.184;8.054;2023-07-31T07:31:21;5.77;;;2.57;;
26780;SDS011;14366;49.184;8.054;2023-07-31T07:36:55;4.67;;;2.40;;
26780;SDS011;14366;49.184;8.054;2023-07-31T07:42:29;8.48;;;2.90;;
26780;SDS011;14366;49.184;8.054;2023-07-31T07:47:46;5.50;;;2.83;;
26780;SDS011;14366;49.184;8.054;2023-07-31T07:53:23;6.25;;;2.40;;
26780;SDS011;14366;49.184;8.054;2023-07-31T07:58:57;4.70;;;2.57;;
26780;SDS011;14366;49.184;8.054;2023-07-31T08:04:17;6.27;;;2.83;;
26780;SDS011;14366;49.184;8.054;2023-07-31T08:09:36;6.55;;;2.80;;
26780;SDS011;14366;49.184;8.054;2023-07-31T08:15:08;5.67;;;2.60;;
26780;SDS011;14366;49.184;8.054;2023-07-31T08:20:29;10.85;;;2.70;;
26780;SDS011;14366;49.184;8.054;2023-07-31T08:26:02;5.65;;;2.60;;
26780;SDS011;14366;49.184;8.054;2023-07-31T08:31:32;8.10;;;3.30;;
26780;SDS011;14366;49.184;8.054;2023-07-31T08:36:49;5.43;;;2.75;;
26780;SDS011;14366;49.184;8.054;2023-07-31T08:42:10;5.75;;;2.47;;
26780;SDS011;14366;49.184;8.054;2023-07-31T08:47:44;4.25;;;2.92;;
26780;SDS011;14366;49.184;8.054;2023-07-31T08:58:17;5.38;;;2.60;;
26780;SDS011;14366;49.184;8.054;2023-07-31T09:09:08;4.15;;;2.50;;
26780;SDS011;14366;49.184;8.054;2023-07-31T09:19:45;6.72;;;2.98;;
26780;SDS011;14366;49.184;8.054;2023-07-31T09:25:15;3.97;;;2.87;;
26780;SDS011;14366;49.184;8.054;2023-07-31T09:30:47;7.10;;;3.10;;
26780;SDS011;14366;49.184;8.054;2023-07-31T09:41:27;5.05;;;2.50;;
26780;SDS011;14366;49.184;8.054;2023-07-31T09:52:09;4.65;;;2.90;;
26780;SDS011;14366;49.184;8.054;2023-07-31T10:02:46;7.30;;;2.80;;
26780;SDS011;14366;49.184;8.054;2023-07-31T10:13:25;5.68;;;3.00;;
26780;SDS011;14366;49.184;8.054;2023-07-31T10:18:58;9.00;;;2.90;;
26780;SDS011;14366;49.184;8.054;2023-07-31T10:29:34;6.78;;;3.18;;
26780;SDS011;14366;49.184;8.054;2023-07-31T10:35:10;6.07;;;3.20;;
26780;SDS011;14366;49.184;8.054;2023-07-31T10:40:42;6.35;;;3.10;;
26780;SDS011;14366;49.184;8.054;2023-07-31T10:51:41;8.04;;;3.20;;
26780;SDS011;14366;49.184;8.054;2023-07-31T10:57:19;5.62;;;2.97;;
26780;SDS011;14366;49.184;8.054;2023-07-31T11:02:58;7.10;;;3.30;;
26780;SDS011;14366;49.184;8.054;2023-07-31T11:08:32;5.83;;;2.60;;
26780;SDS011;14366;49.184;8.054;2023-07-31T11:19:08;5.24;;;2.68;;
26780;SDS011;14366;49.184;8.054;2023-07-31T11:29:42;7.22;;;3.35;;
26780;SDS011;14366;49.184;8.054;2023-07-31T11:35:17;7.36;;;3.08;;
26780;SDS011;14366;49.184;8.054;2023-07-31T11:40:52;4.85;;;2.65;;
26780;SDS011;14366;49.184;8.054;2023-07-31T11:46:22;6.60;;;3.17;;
26780;SDS011;14366;49.184;8.054;2023-07-31T11:56:58;8.30;;;2.65;;
26780;SDS011;14366;49.184;8.054;2023-07-31T12:02:46;4.72;;;3.00;;
26780;SDS011;14366;49.184;8.054;2023-07-31T12:08:22;4.50;;;2.60;;
26780;SDS011;14366;49.184;8.054;2023-07-31T12:13:53;4.07;;;2.77;;
26780;SDS011;14366;49.184;8.054;2023-07-31T12:19:30;5.55;;;3.05;;
26780;SDS011;14366;49.184;8.054;2023-07-31T12:25:04;7.03;;;2.75;;
26780;SDS011;14366;49.184;8.054;2023-07-31T12:30:40;4.93;;;2.58;;
26780;SDS011;14366;49.184;8.054;2023-07-31T12:36:16;6.70;;;3.04;;
26780;SDS011;14366;49.184;8.054;2023-07-31T12:41:50;5.80;;;2.80;;
26780;SDS011;14366;49.184;8.054;2023-07-31T12:47:25;6.15;;;3.10;;
26780;SDS011;14366;49.184;8.054;2023-07-31T12:52:47;7.40;;;3.00;;
26780;SDS011;14366;49.184;8.054;2023-07-31T12:58:21;5.20;;;2.80;;
26780;SDS011;14366;49.184;8.054;2023-07-31T13:03:56;7.20;;;2.70;;
26780;SDS011;14366;49.184;8.054;2023-07-31T13:09:30;5.22;;;2.50;;
26780;SDS011;14366;49.184;8.054;2023-07-31T13:15:05;5.25;;;2.80;;
26780;SDS011;14366;49.184;8.054;2023-07-31T13:20:37;5.78;;;2.80;;
26780;SDS011;14366;49.184;8.054;2023-07-31T13:25:59;6.70;;;2.70;;
26780;SDS011;14366;49.184;8.054;2023-07-31T13:31:33;6.20;;;3.35;;
26780;SDS011;14366;49.184;8.054;2023-07-31T13:36:50;5.30;;;2.70;;
26780;SDS011;14366;49.184;8.054;2023-07-31T13:47:32;6.15;;;2.85;;
26780;SDS011;14366;49.184;8.054;2023-07-31T13:53:01;5.47;;;2.72;;
26780;SDS011;14366;49.184;8.054;2023-07-31T13:58:36;5.65;;;2.70;;
26780;SDS011;14366;49.184;8.054;2023-07-31T14:04:10;6.75;;;3.10;;
26780;SDS011;14366;49.184;8.054;2023-07-31T14:14:59;6.80;;;2.95;;
26780;SDS011;14366;49.184;8.054;2023-07-31T14:20:21;6.03;;;2.95;;
26780;SDS011;14366;49.184;8.054;2023-07-31T14:25:56;5.12;;;2.58;;
26780;SDS011;14366;49.184;8.054;2023-07-31T14:31:13;5.76;;;2.70;;
26780;SDS011;14366;49.184;8.054;2023-07-31T14:36:34;3.87;;;2.50;;
26780;SDS011;14366;49.184;8.054;2023-07-31T14:42:09;6.78;;;2.65;;
26780;SDS011;14366;49.184;8.054;2023-07-31T14:47:44;6.20;;;2.87;;
26780;SDS011;14366;49.184;8.054;2023-07-31T14:53:02;4.32;;;2.60;;
26780;SDS011;14366;49.184;8.054;2023-07-31T14:58:35;6.72;;;2.88;;
26780;SDS011;14366;49.184;8.054;2023-07-31T15:03:55;4.85;;;2.80;;
26780;SDS011;14366;49.184;8.054;2023-07-31T15:09:13;4.93;;;2.72;;
26780;SDS011;14366;49.184;8.054;2023-07-31T15:14:48;3.75;;;2.75;;
26780;SDS011;14366;49.184;8.054;2023-07-31T15:20:20;6.60;;;2.90;;
26780;SDS011;14366;49.184;8.054;2023-07-31T15:25:41;6.22;;;2.80;;
26780;SDS011;14366;49.184;8.054;2023-07-31T15:31:16;5.17;;;3.13;;
26780;SDS011;14366;49.184;8.054;2023-07-31T15:36:34;5.82;;;3.22;;
26780;SDS011;14366;49.184;8.054;2023-07-31T15:47:11;5.70;;;2.50;;
26780;SDS011;14366;49.184;8.054;2023-07-31T15:52:44;9.20;;;3.03;;
26780;SDS011;14366;49.184;8.054;2023-07-31T15:58:04;5.07;;;2.67;;
26780;SDS011;14366;49.184;8.054;2023-07-31T16:03:40;7.07;;;3.00;;
26780;SDS011;14366;49.184;8.054;2023-07-31T16:09:15;5.64;;;3.24;;
26780;SDS011;14366;49.184;8.054;2023-07-31T16:14:50;4.68;;;2.97;;
26780;SDS011;14366;49.184;8.054;2023-07-31T16:20:26;6.63;;;2.77;;
26780;SDS011;14366;49.184;8.054;2023-07-31T16:25:58;3.20;;;2.80;;
26780;SDS011;14366;49.184;8.054;2023-07-31T16:36:23;7.90;;;3.10;;
26780;SDS011;14366;49.184;8.054;2023-07-31T16:46:57;5.20;;;3.00;;
26780;SDS011;14366;49.184;8.054;2023-07-31T16:52:18;7.90;;;3.05;;
26780;SDS011;14366;49.184;8.054;2023-07-31T16:57:54;5.50;;;2.90;;
26780;SDS011;14366;49.184;8.054;2023-07-31T17:03:26;5.20;;;2.90;;
26780;SDS011;14366;49.184;8.054;2023-07-31T17:08:48;4.90;;;2.90;;
26780;SDS011;14366;49.184;8.054;2023-07-31T17:14:20;5.75;;;2.70;;
26780;SDS011;14366;49.184;8.054;2023-07-31T17:19:37;4.13;;;2.90;;
26780;SDS011;14366;49.184;8.054;2023-07-31T17:25:10;4.25;;;3.00;;
26780;SDS011;14366;49.184;8.054;2023-07-31T17:30:54;5.45;;;3.08;;
26780;SDS011;14366;49.184;8.054;2023-07-31T17:36:29;3.60;;;2.85;;
26780;SDS011;14366;49.184;8.054;2023-07-31T17:41:50;5.57;;;3.07;;
26780;SDS011;14366;49.184;8.054;2023-07-31T17:47:25;5.37;;;3.10;;
26780;SDS011;14366;49.184;8.054;2023-07-31T17:52:42;4.40;;;2.78;;
26780;SDS011;14366;49.184;8.054;2023-07-31T18:03:19;6.55;;;3.33;;
26780;SDS011;14366;49.184;8.054;2023-07-31T18:13:55;5.64;;;2.96;;
26780;SDS011;14366;49.184;8.054;2023-07-31T18:19:28;4.12;;;2.45;;
26780;SDS011;14366;49.184;8.054;2023-07-31T18:25:00;4.55;;;2.90;;
26780;SDS011;14366;49.184;8.054;2023-07-31T18:30:20;4.08;;;2.60;;
26780;SDS011;14366;49.184;8.054;2023-07-31T18:35:54;4.25;;;2.67;;
26780;SDS011;14366;49.184;8.054;2023-07-31T18:41:25;5.03;;;3.10;;
26780;SDS011;14366;49.184;8.054;2023-07-31T18:46:42;4.40;;;2.60;;
26780;SDS011;14366;49.184;8.054;2023-07-31T18:52:16;3.70;;;2.60;;
26780;SDS011;14366;49.184;8.054;2023-07-31T18:57:47;4.35;;;2.95;;
26780;SDS011;14366;49.184;8.054;2023-07-31T19:03:19;4.30;;;2.50;;
26780;SDS011;14366;49.184;8.054;2023-07-31T19:08:56;4.65;;;2.70;;
26780;SDS011;14366;49.184;8.054;2023-07-31T19:14:27;5.22;;;2.85;;
26780;SDS011;14366;49.184;8.054;2023-07-31T19:19:59;3.75;;;2.50;;
26780;SDS011;14366;49.184;8.054;2023-07-31T19:25:20;4.15;;;2.70;;
26780;SDS011;14366;49.184;8.054;2023-07-31T19:30:50;2.93;;;2.57;;
26780;SDS011;14366;49.184;8.054;2023-07-31T19:36:19;4.90;;;2.90;;
26780;SDS011;14366;49.184;8.054;2023-07-31T19:41:38;3.67;;;2.53;;
26780;SDS011;14366;49.184;8.054;2023-07-31T19:47:09;3.75;;;2.50;;
26780;SDS011;14366;49.184;8.054;2023-07-31T19:52:26;3.03;;;2.40;;
26780;SDS011;14366;49.184;8.054;2023-07-31T19:58:00;4.62;;;2.50;;
26780;SDS011;14366;49.184;8.054;2023-07-31T20:03:31;2.97;;;2.47;;
26780;SDS011;14366;49.184;8.054;2023-07-31T20:09:03;5.10;;;2.83;;
26780;SDS011;14366;49.184;8.054;2023-07-31T20:14:25;4.85;;;2.60;;
26780;SDS011;14366;49.184;8.054;2023-07-31T20:19:59;5.12;;;2.90;;
26780;SDS011;14366;49.184;8.054;2023-07-31T20:25:16;4.23;;;2.70;;
26780;SDS011;14366;49.184;8.054;2023-07-31T20:35:57;4.30;;;2.50;;
26780;SDS011;14366;49.184;8.054;2023-07-31T20:46:35;3.97;;;2.60;;
26780;SDS011;14366;49.184;8.054;2023-07-31T20:51:57;4.70;;;2.80;;
26780;SDS011;14366;49.184;8.054;2023-07-31T20:57:32;5.30;;;2.90;;
26780;SDS011;14366;49.184;8.054;2023-07-31T21:08:09;4.55;;;2.65;;
26780;SDS011;14366;49.184;8.054;2023-07-31T21:13:41;4.62;;;2.78;;
26780;SDS011;14366;49.184;8.054;2023-07-31T21:19:13;5.95;;;3.10;;
26780;SDS011;14366;49.184;8.054;2023-07-31T21:24:49;4.05;;;2.80;;
26780;SDS011;14366;49.184;8.054;2023-07-31T21:30:21;4.35;;;2.70;;
26780;SDS011;14366;49.184;8.054;2023-07-31T21:35:56;4.60;;;3.00;;
26780;SDS011;14366;49.184;8.054;2023-07-31T21:41:14;4.78;;;2.87;;
26780;SDS011;14366;49.184;8.054;2023-07-31T21:46:46;3.50;;;2.60;;
26780;SDS011;14366;49.184;8.054;2023-07-31T21:52:06;5.70;;;2.90;;
26780;SDS011;14366;49.184;8.054;2023-07-31T21:57:42;5.62;;;3.08;;
26780;SDS011;14366;49.184;8.054;2023-07-31T22:03:14;4.47;;;3.00;;
26780;SDS011;14366;49.184;8.054;2023-07-31T22:08:31;7.45;;;3.10;;
26780;SDS011;14366;49.184;8.054;2023-07-31T22:13:49;5.80;;;3.20;;
26780;SDS011;14366;49.184;8.054;2023-07-31T22:24:25;4.10;;;3.03;;
26780;SDS011;14366;49.184;8.054;2023-07-31T22:29:43;5.20;;;3.30;;
26780;SDS011;14366;49.184;8.054;2023-07-31T22:35:15;6.65;;;3.35;;
26780;SDS011;14366;49.184;8.054;2023-07-31T22:40:47;8.10;;;3.87;;
26780;SDS011;14366;49.184;8.054;2023-07-31T22:46:05;5.05;;;3.30;;
26780;SDS011;14366;49.184;8.054;2023-07-31T22:51:35;6.80;;;3.30;;
26780;SDS011;14366;49.184;8.054;2023-07-31T22:56:55;6.00;;;3.30;;
26780;SDS011;14366;49.184;8.054;2023-07-31T23:02:28;5.47;;;3.33;;
26780;SDS011;14366;49.184;8.054;2023-07-31T23:07:58;7.78;;;3.75;;
26780;SDS011;14366;49.184;8.054;2023-07-31T23:13:18;6.25;;;3.45;;
26780;SDS011;14366;49.184;8.054;2023-07-31T23:18:54;7.57;;;3.60;;
26780;SDS011;14366;49.184;8.054;2023-07-31T23:24:29;5.53;;;3.15;;
26780;SDS011;14366;49.184;8.054;2023-07-31T23:30:05;5.50;;;3.40;;
26780;SDS011;14366;49.184;8.054;2023-07-31T23:35:41;5.93;;;3.53;;
26780;SDS011;14366;49.184;8.054;2023-07-31T23:41:17;7.10;;;3.40;;
26780;SDS011;14366;49.184;8.054;2023-07-31T23:46:48;9.37;;;4.43;;
26780;SDS011;14366;49.184;8.054;2023-07-31T23:57:29;6.50;;;3.87;;
